sensor_id;sensor_type;location;lat;lon;timestamp;P1;durP1;ratioP1;P2;durP2;ratioP2
61483;SDS011;47349;55.640;37.692;2023-04-01T00:01:41;37.15;;;19.05;;
61483;SDS011;47349;55.640;37.692;2023-04-01T00:04:09;34.95;;;18.67;;
61483;SDS011;47349;55.640;37.692;2023-04-01T00:06:50;34.67;;;17.42;;
61483;SDS011;47349;55.640;37.692;2023-04-01T00:09:20;36.55;;;19.50;;
61483;SDS011;47349;55.640;37.692;2023-04-01T00:12:01;32.70;;;19.20;;
61483;SDS011;47349;55.640;37.692;2023-04-01T00:14:42;37.92;;;18.13;;
61483;SDS011;47349;55.640;37.692;2023-04-01T00:17:24;34.60;;;18.08;;
61483;SDS011;47349;55.640;37.692;2023-04-01T00:20:07;35.13;;;17.73;;
61483;SDS011;47349;55.640;37.692;2023-04-01T00:22:50;32.80;;;16.92;;
61483;SDS011;47349;55.640;37.692;2023-04-01T00:25:31;35.30;;;15.85;;
61483;SDS011;47349;55.640;37.692;2023-04-01T00:28:12;31.33;;;16.90;;
61483;SDS011;47349;55.640;37.692;2023-04-01T00:30:55;34.00;;;17.27;;
61483;SDS011;47349;55.640;37.692;2023-04-01T00:33:36;30.17;;;15.25;;
61483;SDS011;47349;55.640;37.692;2023-04-01T00:36:18;34.72;;;17.20;;
61483;SDS011;47349;55.640;37.692;2023-04-01T00:39:01;33.13;;;15.73;;
61483;SDS011;47349;55.640;37.692;2023-04-01T00:41:43;30.70;;;15.73;;
61483;SDS011;47349;55.640;37.692;2023-04-01T00:44:25;30.17;;;14.93;;
61483;SDS011;47349;55.640;37.692;2023-04-01T00:47:09;28.25;;;15.95;;
61483;SDS011;47349;55.640;37.692;2023-04-01T00:49:50;29.13;;;14.45;;
61483;SDS011;47349;55.640;37.692;2023-04-01T00:52:34;29.35;;;14.73;;
61483;SDS011;47349;55.640;37.692;2023-04-01T00:55:04;27.60;;;15.20;;
61483;SDS011;47349;55.640;37.692;2023-04-01T00:57:48;25.10;;;14.52;;
61483;SDS011;47349;55.640;37.692;2023-04-01T01:00:33;27.77;;;15.25;;
61483;SDS011;47349;55.640;37.692;2023-04-01T01:03:05;31.83;;;16.98;;
61483;SDS011;47349;55.640;37.692;2023-04-01T01:05:53;31.67;;;15.88;;
61483;SDS011;47349;55.640;37.692;2023-04-01T01:09:10;29.75;;;15.82;;
61483;SDS011;47349;55.640;37.692;2023-04-01T01:27:18;31.05;;;15.80;;
61483;SDS011;47349;55.640;37.692;2023-04-01T01:35:35;32.42;;;15.73;;
61483;SDS011;47349;55.640;37.692;2023-04-01T01:38:33;31.33;;;16.15;;
61483;SDS011;47349;55.640;37.692;2023-04-01T01:41:05;28.92;;;15.57;;
61483;SDS011;47349;55.640;37.692;2023-04-01T01:43:48;30.00;;;15.48;;
61483;SDS011;47349;55.640;37.692;2023-04-01T01:46:24;31.02;;;15.75;;
61483;SDS011;47349;55.640;37.692;2023-04-01T01:49:08;27.48;;;15.02;;
61483;SDS011;47349;55.640;37.692;2023-04-01T01:51:52;27.85;;;14.23;;
61483;SDS011;47349;55.640;37.692;2023-04-01T01:54:21;25.58;;;14.10;;
61483;SDS011;47349;55.640;37.692;2023-04-01T01:57:07;29.80;;;15.63;;
61483;SDS011;47349;55.640;37.692;2023-04-01T01:59:52;30.38;;;14.63;;
61483;SDS011;47349;55.640;37.692;2023-04-01T02:02:41;30.75;;;15.05;;
61483;SDS011;47349;55.640;37.692;2023-04-01T02:05:14;33.15;;;16.45;;
61483;SDS011;47349;55.640;37.692;2023-04-01T02:11:16;31.90;;;15.68;;
61483;SDS011;47349;55.640;37.692;2023-04-01T02:13:58;30.30;;;15.55;;
61483;SDS011;47349;55.640;37.692;2023-04-01T02:16:53;30.05;;;15.55;;
61483;SDS011;47349;55.640;37.692;2023-04-01T02:19:31;32.55;;;15.40;;
61483;SDS011;47349;55.640;37.692;2023-04-01T02:22:09;31.13;;;14.63;;
61483;SDS011;47349;55.640;37.692;2023-04-01T02:24:57;33.20;;;15.07;;
61483;SDS011;47349;55.640;37.692;2023-04-01T02:27:28;28.95;;;14.52;;
61483;SDS011;47349;55.640;37.692;2023-04-01T02:30:07;30.55;;;15.20;;
61483;SDS011;47349;55.640;37.692;2023-04-01T02:32:40;35.03;;;16.13;;
61483;SDS011;47349;55.640;37.692;2023-04-01T02:35:22;33.45;;;16.80;;
61483;SDS011;47349;55.640;37.692;2023-04-01T02:38:03;33.85;;;16.67;;
61483;SDS011;47349;55.640;37.692;2023-04-01T02:40:44;35.10;;;16.90;;
61483;SDS011;47349;55.640;37.692;2023-04-01T02:43:27;28.25;;;15.18;;
61483;SDS011;47349;55.640;37.692;2023-04-01T02:46:11;32.67;;;15.40;;
61483;SDS011;47349;55.640;37.692;2023-04-01T02:48:41;33.80;;;15.77;;
61483;SDS011;47349;55.640;37.692;2023-04-01T02:51:22;33.50;;;15.88;;
61483;SDS011;47349;55.640;37.692;2023-04-01T02:53:50;33.20;;;16.90;;
61483;SDS011;47349;55.640;37.692;2023-04-01T02:56:31;30.38;;;14.38;;
61483;SDS011;47349;55.640;37.692;2023-04-01T02:59:01;32.38;;;15.30;;
61483;SDS011;47349;55.640;37.692;2023-04-01T03:01:29;33.65;;;16.15;;
61483;SDS011;47349;55.640;37.692;2023-04-01T03:03:58;34.10;;;16.65;;
61483;SDS011;47349;55.640;37.692;2023-04-01T03:06:39;35.83;;;16.85;;
61483;SDS011;47349;55.640;37.692;2023-04-01T03:09:11;32.42;;;16.75;;
61483;SDS011;47349;55.640;37.692;2023-04-01T03:11:47;32.42;;;15.52;;
61483;SDS011;47349;55.640;37.692;2023-04-01T03:14:31;34.30;;;18.02;;
61483;SDS011;47349;55.640;37.692;2023-04-01T03:16:59;36.03;;;17.05;;
61483;SDS011;47349;55.640;37.692;2023-04-01T03:19:36;32.50;;;17.63;;
61483;SDS011;47349;55.640;37.692;2023-04-01T03:22:17;34.90;;;17.52;;
61483;SDS011;47349;55.640;37.692;2023-04-01T03:25:03;36.35;;;17.20;;
61483;SDS011;47349;55.640;37.692;2023-04-01T03:27:33;36.75;;;17.33;;
61483;SDS011;47349;55.640;37.692;2023-04-01T03:30:03;36.72;;;18.20;;
61483;SDS011;47349;55.640;37.692;2023-04-01T03:32:46;37.00;;;18.05;;
61483;SDS011;47349;55.640;37.692;2023-04-01T03:35:18;34.35;;;17.70;;
61483;SDS011;47349;55.640;37.692;2023-04-01T03:37:59;34.28;;;16.50;;
61483;SDS011;47349;55.640;37.692;2023-04-01T03:40:42;34.17;;;17.60;;
61483;SDS011;47349;55.640;37.692;2023-04-01T03:43:14;33.50;;;17.45;;
61483;SDS011;47349;55.640;37.692;2023-04-01T03:45:44;32.40;;;16.17;;
61483;SDS011;47349;55.640;37.692;2023-04-01T03:48:15;34.67;;;16.85;;
61483;SDS011;47349;55.640;37.692;2023-04-01T03:50:47;32.15;;;15.95;;
61483;SDS011;47349;55.640;37.692;2023-04-01T03:53:29;34.72;;;16.95;;
61483;SDS011;47349;55.640;37.692;2023-04-01T03:56:10;35.08;;;17.73;;
61483;SDS011;47349;55.640;37.692;2023-04-01T03:58:51;36.60;;;17.13;;
61483;SDS011;47349;55.640;37.692;2023-04-01T04:01:20;30.50;;;15.90;;
61483;SDS011;47349;55.640;37.692;2023-04-01T04:03:54;33.45;;;17.00;;
61483;SDS011;47349;55.640;37.692;2023-04-01T04:06:23;34.45;;;17.10;;
61483;SDS011;47349;55.640;37.692;2023-04-01T04:09:05;32.65;;;16.73;;
61483;SDS011;47349;55.640;37.692;2023-04-01T04:11:46;33.70;;;16.65;;
61483;SDS011;47349;55.640;37.692;2023-04-01T04:14:28;31.38;;;15.02;;
61483;SDS011;47349;55.640;37.692;2023-04-01T04:16:57;34.72;;;16.42;;
61483;SDS011;47349;55.640;37.692;2023-04-01T04:19:39;28.42;;;15.32;;
61483;SDS011;47349;55.640;37.692;2023-04-01T04:22:21;31.95;;;16.38;;
61483;SDS011;47349;55.640;37.692;2023-04-01T04:25:05;31.27;;;15.63;;
61483;SDS011;47349;55.640;37.692;2023-04-01T04:27:36;31.38;;;16.38;;
61483;SDS011;47349;55.640;37.692;2023-04-01T04:30:09;30.33;;;15.43;;
61483;SDS011;47349;55.640;37.692;2023-04-01T04:32:39;29.30;;;15.48;;
61483;SDS011;47349;55.640;37.692;2023-04-01T04:35:22;33.58;;;16.27;;
61483;SDS011;47349;55.640;37.692;2023-04-01T04:37:50;31.88;;;17.02;;
61483;SDS011;47349;55.640;37.692;2023-04-01T04:40:18;31.05;;;16.52;;
61483;SDS011;47349;55.640;37.692;2023-04-01T04:42:48;33.17;;;17.15;;
61483;SDS011;47349;55.640;37.692;2023-04-01T04:45:16;30.50;;;16.35;;
61483;SDS011;47349;55.640;37.692;2023-04-01T04:47:53;32.75;;;16.45;;
61483;SDS011;47349;55.640;37.692;2023-04-01T04:50:23;30.70;;;16.80;;
61483;SDS011;47349;55.640;37.692;2023-04-01T04:52:52;30.83;;;16.13;;
61483;SDS011;47349;55.640;37.692;2023-04-01T04:55:20;34.03;;;17.45;;
61483;SDS011;47349;55.640;37.692;2023-04-01T04:57:56;31.13;;;15.57;;
61483;SDS011;47349;55.640;37.692;2023-04-01T05:00:24;30.75;;;16.63;;
61483;SDS011;47349;55.640;37.692;2023-04-01T05:02:56;28.70;;;15.20;;
61483;SDS011;47349;55.640;37.692;2023-04-01T05:05:24;29.33;;;15.20;;
61483;SDS011;47349;55.640;37.692;2023-04-01T05:08:05;34.05;;;16.08;;
61483;SDS011;47349;55.640;37.692;2023-04-01T05:10:33;31.83;;;16.73;;
61483;SDS011;47349;55.640;37.692;2023-04-01T05:13:02;31.17;;;16.25;;
61483;SDS011;47349;55.640;37.692;2023-04-01T05:15:35;30.10;;;14.55;;
61483;SDS011;47349;55.640;37.692;2023-04-01T05:18:29;30.67;;;16.20;;
61483;SDS011;47349;55.640;37.692;2023-04-01T05:21:01;33.83;;;14.80;;
61483;SDS011;47349;55.640;37.692;2023-04-01T05:23:45;32.58;;;17.63;;
61483;SDS011;47349;55.640;37.692;2023-04-01T05:26:28;32.50;;;15.45;;
61483;SDS011;47349;55.640;37.692;2023-04-01T05:29:30;27.52;;;15.15;;
61483;SDS011;47349;55.640;37.692;2023-04-01T05:32:06;29.58;;;16.10;;
61483;SDS011;47349;55.640;37.692;2023-04-01T05:34:51;27.33;;;13.98;;
61483;SDS011;47349;55.640;37.692;2023-04-01T05:37:35;25.20;;;14.52;;
61483;SDS011;47349;55.640;37.692;2023-04-01T05:40:21;26.63;;;15.13;;
61483;SDS011;47349;55.640;37.692;2023-04-01T05:43:02;24.35;;;13.15;;
61483;SDS011;47349;55.640;37.692;2023-04-01T05:45:46;27.98;;;14.77;;
61483;SDS011;47349;55.640;37.692;2023-04-01T05:48:51;24.27;;;14.13;;
61483;SDS011;47349;55.640;37.692;2023-04-01T05:51:25;25.33;;;14.55;;
61483;SDS011;47349;55.640;37.692;2023-04-01T05:54:09;24.42;;;14.15;;
61483;SDS011;47349;55.640;37.692;2023-04-01T05:56:50;27.33;;;15.25;;
61483;SDS011;47349;55.640;37.692;2023-04-01T05:59:30;26.08;;;14.95;;
61483;SDS011;47349;55.640;37.692;2023-04-01T06:02:12;24.25;;;14.45;;
61483;SDS011;47349;55.640;37.692;2023-04-01T06:04:42;27.27;;;14.85;;
61483;SDS011;47349;55.640;37.692;2023-04-01T06:07:24;26.17;;;13.23;;
61483;SDS011;47349;55.640;37.692;2023-04-01T06:10:17;27.70;;;14.13;;
61483;SDS011;47349;55.640;37.692;2023-04-01T06:13:07;26.40;;;14.27;;
61483;SDS011;47349;55.640;37.692;2023-04-01T06:15:58;30.55;;;16.27;;
61483;SDS011;47349;55.640;37.692;2023-04-01T06:26:16;27.35;;;14.50;;
61483;SDS011;47349;55.640;37.692;2023-04-01T06:46:45;26.38;;;14.40;;
61483;SDS011;47349;55.640;37.692;2023-04-01T06:54:34;30.33;;;15.57;;
61483;SDS011;47349;55.640;37.692;2023-04-01T07:35:55;31.75;;;14.40;;
61483;SDS011;47349;55.640;37.692;2023-04-01T07:55:06;29.55;;;15.20;;
61483;SDS011;47349;55.640;37.692;2023-04-01T08:05:49;28.02;;;13.80;;
61483;SDS011;47349;55.640;37.692;2023-04-01T08:14:13;28.30;;;14.57;;
61483;SDS011;47349;55.640;37.692;2023-04-01T08:21:00;28.05;;;14.68;;
61483;SDS011;47349;55.640;37.692;2023-04-01T08:23:55;26.15;;;14.45;;
61483;SDS011;47349;55.640;37.692;2023-04-01T08:27:06;29.00;;;15.38;;
61483;SDS011;47349;55.640;37.692;2023-04-01T08:30:16;25.92;;;12.88;;
61483;SDS011;47349;55.640;37.692;2023-04-01T08:33:29;28.55;;;14.30;;
61483;SDS011;47349;55.640;37.692;2023-04-01T08:36:17;27.30;;;15.32;;
61483;SDS011;47349;55.640;37.692;2023-04-01T08:39:40;27.95;;;15.52;;
61483;SDS011;47349;55.640;37.692;2023-04-01T08:59:44;30.23;;;14.20;;
61483;SDS011;47349;55.640;37.692;2023-04-01T09:08:01;28.65;;;15.90;;
61483;SDS011;47349;55.640;37.692;2023-04-01T09:41:57;17.17;;;11.00;;
61483;SDS011;47349;55.640;37.692;2023-04-01T09:45:36;20.67;;;10.80;;
61483;SDS011;47349;55.640;37.692;2023-04-01T10:49:05;15.07;;;7.63;;
61483;SDS011;47349;55.640;37.692;2023-04-01T10:51:55;14.57;;;6.75;;
61483;SDS011;47349;55.640;37.692;2023-04-01T10:55:19;12.68;;;7.32;;
61483;SDS011;47349;55.640;37.692;2023-04-01T11:24:03;11.10;;;6.60;;
61483;SDS011;47349;55.640;37.692;2023-04-01T11:37:59;9.93;;;5.60;;
61483;SDS011;47349;55.640;37.692;2023-04-01T11:44:28;10.90;;;6.30;;
61483;SDS011;47349;55.640;37.692;2023-04-01T11:47:22;9.52;;;6.38;;
61483;SDS011;47349;55.640;37.692;2023-04-01T12:20:40;11.48;;;6.55;;
61483;SDS011;47349;55.640;37.692;2023-04-01T12:26:22;14.45;;;7.43;;
61483;SDS011;47349;55.640;37.692;2023-04-01T12:29:21;11.38;;;7.25;;
61483;SDS011;47349;55.640;37.692;2023-04-01T12:35:25;14.77;;;6.90;;
61483;SDS011;47349;55.640;37.692;2023-04-01T12:41:39;16.42;;;8.00;;
61483;SDS011;47349;55.640;37.692;2023-04-01T14:32:43;20.42;;;10.77;;
61483;SDS011;47349;55.640;37.692;2023-04-01T14:35:41;17.30;;;10.90;;
61483;SDS011;47349;55.640;37.692;2023-04-01T14:38:38;15.98;;;9.23;;
61483;SDS011;47349;55.640;37.692;2023-04-01T14:41:25;20.55;;;10.40;;
61483;SDS011;47349;55.640;37.692;2023-04-01T15:18:32;18.70;;;12.23;;
61483;SDS011;47349;55.640;37.692;2023-04-01T15:21:29;18.90;;;11.23;;
61483;SDS011;47349;55.640;37.692;2023-04-01T15:24:06;21.52;;;12.60;;
61483;SDS011;47349;55.640;37.692;2023-04-01T15:27:00;21.48;;;11.52;;
61483;SDS011;47349;55.640;37.692;2023-04-01T15:39:03;17.27;;;12.07;;
61483;SDS011;47349;55.640;37.692;2023-04-01T15:42:06;18.30;;;11.82;;
61483;SDS011;47349;55.640;37.692;2023-04-01T15:45:07;20.02;;;13.20;;
61483;SDS011;47349;55.640;37.692;2023-04-01T16:00:30;28.65;;;15.82;;
61483;SDS011;47349;55.640;37.692;2023-04-01T16:09:23;30.73;;;16.58;;
61483;SDS011;47349;55.640;37.692;2023-04-01T16:12:36;17.58;;;11.30;;
61483;SDS011;47349;55.640;37.692;2023-04-01T16:15:37;28.08;;;14.20;;
61483;SDS011;47349;55.640;37.692;2023-04-01T16:21:18;18.08;;;10.02;;
61483;SDS011;47349;55.640;37.692;2023-04-01T16:24:02;17.30;;;10.30;;
61483;SDS011;47349;55.640;37.692;2023-04-01T16:26:48;18.25;;;11.63;;
61483;SDS011;47349;55.640;37.692;2023-04-01T16:38:24;18.85;;;10.88;;
61483;SDS011;47349;55.640;37.692;2023-04-01T16:47:29;18.67;;;10.95;;
61483;SDS011;47349;55.640;37.692;2023-04-01T16:50:27;22.40;;;11.52;;
61483;SDS011;47349;55.640;37.692;2023-04-01T16:56:27;18.77;;;11.98;;
61483;SDS011;47349;55.640;37.692;2023-04-01T16:59:26;21.73;;;13.40;;
61483;SDS011;47349;55.640;37.692;2023-04-01T17:02:07;18.67;;;12.50;;
61483;SDS011;47349;55.640;37.692;2023-04-01T17:05:00;23.17;;;12.98;;
61483;SDS011;47349;55.640;37.692;2023-04-01T17:07:48;23.00;;;13.65;;
61483;SDS011;47349;55.640;37.692;2023-04-01T17:22:04;22.30;;;13.98;;
61483;SDS011;47349;55.640;37.692;2023-04-01T17:27:52;21.65;;;13.45;;
61483;SDS011;47349;55.640;37.692;2023-04-01T17:31:24;22.48;;;12.00;;
61483;SDS011;47349;55.640;37.692;2023-04-01T17:34:27;40.60;;;20.95;;
61483;SDS011;47349;55.640;37.692;2023-04-01T17:54:48;19.60;;;11.70;;
61483;SDS011;47349;55.640;37.692;2023-04-01T18:01:03;41.50;;;22.02;;
61483;SDS011;47349;55.640;37.692;2023-04-01T18:23:20;21.50;;;11.50;;
61483;SDS011;47349;55.640;37.692;2023-04-01T18:26:29;18.95;;;12.23;;
61483;SDS011;47349;55.640;37.692;2023-04-01T18:32:14;20.30;;;12.50;;
61483;SDS011;47349;55.640;37.692;2023-04-01T18:38:12;20.45;;;12.48;;
61483;SDS011;47349;55.640;37.692;2023-04-01T19:26:34;21.77;;;12.20;;
61483;SDS011;47349;55.640;37.692;2023-04-01T19:32:28;24.45;;;12.85;;
61483;SDS011;47349;55.640;37.692;2023-04-01T19:35:27;22.20;;;12.63;;
61483;SDS011;47349;55.640;37.692;2023-04-01T19:41:47;24.27;;;12.77;;
61483;SDS011;47349;55.640;37.692;2023-04-01T19:54:01;25.38;;;13.60;;
61483;SDS011;47349;55.640;37.692;2023-04-01T19:58:37;24.58;;;13.77;;
61483;SDS011;47349;55.640;37.692;2023-04-01T20:08:45;26.02;;;13.18;;
61483;SDS011;47349;55.640;37.692;2023-04-01T20:17:44;24.27;;;13.60;;
61483;SDS011;47349;55.640;37.692;2023-04-01T20:26:51;30.88;;;15.65;;
61483;SDS011;47349;55.640;37.692;2023-04-01T20:37:32;24.33;;;15.43;;
61483;SDS011;47349;55.640;37.692;2023-04-01T20:46:53;29.48;;;15.15;;
61483;SDS011;47349;55.640;37.692;2023-04-01T20:51:31;23.88;;;14.10;;
61483;SDS011;47349;55.640;37.692;2023-04-01T21:09:06;24.92;;;14.82;;
61483;SDS011;47349;55.640;37.692;2023-04-01T21:13:41;24.48;;;13.85;;
61483;SDS011;47349;55.640;37.692;2023-04-01T21:26:40;26.23;;;14.20;;
61483;SDS011;47349;55.640;37.692;2023-04-01T21:55:38;26.05;;;14.50;;
61483;SDS011;47349;55.640;37.692;2023-04-01T22:08:45;23.02;;;13.70;;
61483;SDS011;47349;55.640;37.692;2023-04-01T22:11:41;20.73;;;13.40;;
61483;SDS011;47349;55.640;37.692;2023-04-01T22:14:43;23.33;;;14.00;;
61483;SDS011;47349;55.640;37.692;2023-04-01T22:28:52;27.08;;;14.57;;
61483;SDS011;47349;55.640;37.692;2023-04-01T22:31:33;30.42;;;15.02;;
61483;SDS011;47349;55.640;37.692;2023-04-01T22:34:25;26.45;;;15.23;;
61483;SDS011;47349;55.640;37.692;2023-04-01T22:50:39;26.35;;;14.73;;
61483;SDS011;47349;55.640;37.692;2023-04-01T22:53:32;28.83;;;13.88;;
61483;SDS011;47349;55.640;37.692;2023-04-01T22:56:59;33.60;;;15.60;;
61483;SDS011;47349;55.640;37.692;2023-04-01T23:02:13;28.77;;;16.30;;
61483;SDS011;47349;55.640;37.692;2023-04-01T23:04:52;35.00;;;17.13;;
61483;SDS011;47349;55.640;37.692;2023-04-01T23:10:20;32.30;;;16.35;;
61483;SDS011;47349;55.640;37.692;2023-04-01T23:13:16;30.90;;;16.42;;
61483;SDS011;47349;55.640;37.692;2023-04-01T23:15:51;34.38;;;16.60;;
61483;SDS011;47349;55.640;37.692;2023-04-01T23:18:22;31.48;;;15.20;;
61483;SDS011;47349;55.640;37.692;2023-04-01T23:21:15;35.88;;;16.27;;
61483;SDS011;47349;55.640;37.692;2023-04-01T23:29:29;34.28;;;16.73;;
61483;SDS011;47349;55.640;37.692;2023-04-01T23:32:01;36.75;;;17.25;;
61483;SDS011;47349;55.640;37.692;2023-04-01T23:34:35;38.60;;;18.45;;
61483;SDS011;47349;55.640;37.692;2023-04-01T23:37:04;38.08;;;17.40;;
61483;SDS011;47349;55.640;37.692;2023-04-01T23:39:42;40.90;;;18.98;;
61483;SDS011;47349;55.640;37.692;2023-04-01T23:42:29;42.47;;;17.00;;
61483;SDS011;47349;55.640;37.692;2023-04-01T23:45:05;41.65;;;19.35;;
61483;SDS011;47349;55.640;37.692;2023-04-01T23:47:44;40.55;;;19.48;;
61483;SDS011;47349;55.640;37.692;2023-04-01T23:50:22;41.55;;;19.30;;
61483;SDS011;47349;55.640;37.692;2023-04-01T23:53:02;39.90;;;19.02;;
61483;SDS011;47349;55.640;37.692;2023-04-01T23:55:40;41.22;;;18.85;;
61483;SDS011;47349;55.640;37.692;2023-04-01T23:58:13;38.35;;;17.13;;
